Les Mechins, Canada
Current Conditions -  °F | °C
As of 10:00 PM on Friday 24 Oct 2014 (Local Time) from CYBC Reporting Station
Broken Clouds Broken Clouds  
Wind Chill: 37°   Ceiling: 18000
Heat Index: 41°   Visibility: 9mi
Dew Point: 30°   Wind: 6mph
Humidity: 65%   Direction: 270°W
Pressure: 29.74"   Gusts: NA
Location:  48.98°N, 66.98°W
Report Text: CYBC 250200Z AUTO 27005KT 9SM BKN180 BKN200 05/M01 A2974 RMK SLP072
Loading
Personal Weather Stations






























Interactive Weather Map
Tropical Storm Tracking
New forecast layout! Learn more

10-Day Weather Forecast

Advertisements
Track Severe Weather on mobile